Data for 05/21/2018

Time Sea-Level Adjusted Pressure Absolute Pressure Temperature Relative Humidity Dew Point   
(mb) (inHg) (mb) (inHg) (C) (F) (%) (C) (F)
00:05 1016 30 846 24.98 12.9 55.3 67 7 44.6
00:10 1017 30.03 846 24.98 13.4 56.1 66 7.1 44.8
00:15 1017 30.03 846 24.98 13.5 56.3 65 7.2 44.9
00:20 1017 30.03 846 24.98 13.7 56.7 65 7.3 45.2
00:25 1017 30.03 846 24.98 13.7 56.7 65 7.3 45.1
00:30 1016 30 846 24.98 13.8 56.8 65 7.5 45.5
00:35 1016 30 846 24.98 13.2 55.7 69 7.7 45.9
00:40 1017 30.03 846 24.98 12.7 54.9 67 6.9 44.4
00:45 1017 30.03 846 24.98 12.5 54.5 67 6.5 43.7
00:50 1017 30.03 846 24.98 12.5 54.6 71 7.5 45.5
00:55 1017 30.03 846 24.98 11.7 53 76 7.6 45.7
01:00 1017 30.03 846 24.98 11.2 52.1 79 7.6 45.8
01:05 1017 30.03 846 24.98 10.9 51.6 79 7.4 45.4
01:10 1017 30.03 846 24.98 11.2 52.2 77 7.4 45.4
01:15 1017 30.03 846 24.98 11.8 53.3 77 7.9 46.3
01:20 1017 30.03 846 24.98 11.6 52.9 75 7.3 45.2
01:25 1017 30.03 846 24.98 11.7 53.1 72 6.9 44.3
01:30 1017 30.03 846 24.98 11.9 53.4 77 8.1 46.6
01:35 1017 30.03 846 24.98 11.3 52.4 83 8.5 47.3
01:40 1017 30.03 846 24.98 10.9 51.5 84 8.3 46.9
01:45 1017 30.03 846 24.98 10.7 51.3 84 8.2 46.8
01:50 1017 30.03 846 24.98 10.7 51.2 85 8.2 46.8
01:55 1017 30.03 846 24.98 10.6 51 86 8.2 46.8
02:00 1017 30.03 846 24.98 10.5 50.9 86 8.3 46.9
02:05 1017 30.03 846 24.98 10.4 50.8 85 8 46.4
02:10 1017 30.03 846 24.98 10.7 51.2 83 7.9 46.2
02:15 1017 30.03 846 24.98 10.8 51.4 83 8 46.4
02:20 1017 30.03 846 24.98 10.8 51.4 84 8.1 46.7
02:25 1017 30.03 846 24.98 10.8 51.5 81 7.8 46
02:30 1017 30.03 846 24.98 11 51.9 81 8 46.4
02:35 1017 30.03 846 24.98 11 51.9 81 7.9 46.2
02:40 1017 30.03 846 24.98 11.1 52 81 7.9 46.3
02:45 1017 30.03 846 24.98 11.1 52 81 8 46.3
02:50 1016 30 846 24.98 11.2 52.2 80 7.8 46.1
02:55 1016 30 846 24.98 11.2 52.2 80 8 46.3
03:00 1016 30 846 24.98 11.2 52.1 79 7.7 45.9
03:05 1016 30 846 24.98 11.1 52 82 8.1 46.6
03:10 1016 30 846 24.98 10.9 51.6 82 8 46.4
03:15 1016 30 846 24.98 10.9 51.7 80 7.6 45.7
03:20 1016 30 846 24.98 11 51.8 80 7.7 45.9
03:25 1017 30.03 846 24.98 10.9 51.6 80 7.6 45.8
03:30 1017 30.03 846 24.98 10.7 51.3 81 7.7 45.8
03:35 1016 30 846 24.98 10.6 51.1 81 7.6 45.6
03:40 1016 30 846 24.98 10.6 51 80 7.4 45.3
03:45 1016 30 846 24.98 10.6 51.1 81 7.5 45.6
03:50 1016 30 846 24.98 10.4 50.8 82 7.5 45.5
03:55 1016 30 845 24.95 10.3 50.5 82 7.3 45.1
04:00 1016 30 845 24.95 10.6 51.1 80 7.3 45.1
04:05 1016 30 845 24.95 10.6 51 80 7.4 45.2
04:10 1016 30 845 24.95 10.3 50.5 82 7.3 45.2
04:15 1016 30 845 24.95 10 50.1 81 6.9 44.5
04:20 1016 30 845 24.95 9.9 49.8 81 6.8 44.3
04:25 1016 30 846 24.98 9.9 49.7 81 6.8 44.2
04:30 1016 30 846 24.98 9.8 49.7 80 6.6 43.9
04:35 1016 30 846 24.98 9.7 49.5 81 6.6 43.8
04:40 1016 30 846 24.98 9.6 49.2 81 6.4 43.6
04:45 1016 30 845 24.95 9.5 49.2 79 6.2 43.1
04:50 1016 30 845 24.95 9.8 49.7 79 6.4 43.6
04:55 1016 30 845 24.95 9.9 49.8 79 6.4 43.5
05:00 1016 30 845 24.95 9.8 49.6 80 6.5 43.7
05:05 1016 30 845 24.95 9.8 49.7 79 6.4 43.5
05:10 1016 30 846 24.98 9.9 49.9 80 6.6 43.9
05:15 1016 30 846 24.98 9.6 49.3 80 6.3 43.3
05:20 1016 30 846 24.98 9.4 48.9 79 6 42.7
05:25 1016 30 846 24.98 9.2 48.6 80 5.9 42.6
05:30 1016 30 846 24.98 8.9 48.1 81 5.9 42.6
05:35 1016 30 846 24.98 8.7 47.7 82 5.8 42.4
05:40 1016 30 846 24.98 8.7 47.7 81 5.6 42.1
05:45 1016 30 846 24.98 8.9 47.9 80 5.5 42
05:50 1016 30 846 24.98 9 48.2 79 5.5 41.9
05:55 1016 30 846 24.98 9 48.1 79 5.6 42.1
06:00 1016 30 846 24.98 9.1 48.3 78 5.4 41.8
06:05 1016 30 846 24.98 9.1 48.3 78 5.4 41.7
06:10 1016 30 846 24.98 9.3 48.7 77 5.5 41.9
06:15 1016 30 846 24.98 9.1 48.3 79 5.6 42
06:20 1016 30 846 24.98 8.7 47.7 80 5.5 41.8
06:25 1016 30 846 24.98 8.6 47.5 80 5.4 41.7
06:30 1016 30 846 24.98 8.6 47.4 80 5.4 41.7
06:35 1016 30 846 24.98 8.5 47.3 80 5.3 41.5
06:40 1017 30.03 846 24.98 8.5 47.2 81 5.4 41.7
06:45 1016 30 846 24.98 8.6 47.5 79 5.3 41.5
06:50 1016 30 846 24.98 8.8 47.8 80 5.6 42
06:55 1017 30.03 846 24.98 9 48.2 79 5.6 42
07:00 1017 30.03 846 24.98 9.2 48.6 79 5.8 42.4
07:05 1017 30.03 846 24.98 9.3 48.7 79 5.9 42.6
07:10 1017 30.03 846 24.98 9.2 48.5 80 5.9 42.6
07:15 1017 30.03 846 24.98 9.3 48.7 80 6 42.8
07:20 1017 30.03 846 24.98 9.5 49 79 6 42.9
07:25 1017 30.03 846 24.98 9.6 49.4 79 6.1 43.1
07:30 1017 30.03 846 24.98 9.9 49.9 77 6.1 43
07:35 1017 30.03 846 24.98 10.2 50.3 75 6 42.8
07:40 1017 30.03 846 24.98 10.4 50.8 75 6.2 43.1
07:45 1017 30.03 846 24.98 10.6 51 74 6.2 43.1
07:50 1017 30.03 846 24.98 10.8 51.5 73 6.3 43.3
07:55 1017 30.03 846 24.98 11.3 52.3 72 6.5 43.7
08:00 1017 30.03 846 24.98 11.6 52.8 72 6.7 44
08:05 1017 30.03 846 24.98 11.7 53.1 70 6.5 43.7
08:10 1017 30.03 846 24.98 12 53.6 68 6.4 43.5
08:15 1017 30.03 846 24.98 12.5 54.5 66 6.4 43.5
08:20 1017 30.03 846 24.98 13 55.4 67 7 44.7
08:25 1017 30.03 846 24.98 13.4 56.2 65 7.1 44.8
08:30 1017 30.03 846 24.98 13.8 56.8 62 6.8 44.2
08:35 1017 30.03 846 24.98 13.7 56.6 64 7 44.6
08:40 1017 30.03 846 24.98 14 57.3 61 6.7 44.1
08:45 1017 30.03 846 24.98 14.6 58.3 59 6.7 44
08:50 1017 30.03 847 25.01 14.7 58.5 60 7.2 44.9
08:55 1017 30.03 847 25.01 14.4 57.9 60 6.9 44.4
09:00 1017 30.03 847 25.01 14.8 58.7 59 7 44.7
09:05 1017 30.03 847 25.01 14.6 58.3 62 7.4 45.3
09:10 1017 30.03 847 25.01 15 59 62 7.8 46
09:15 1017 30.03 847 25.01 14.3 57.8 64 7.6 45.7
09:20 1017 30.03 847 25.01 14.8 58.6 60 7 44.7
09:25 1017 30.03 847 25.01 15.6 60 56 6.9 44.5
09:30 1017 30.03 847 25.01 15.3 59.6 58 7.1 44.8
09:35 1017 30.03 847 25.01 15.4 59.6 57 6.9 44.4
09:40 1017 30.03 847 25.01 16.7 62 54 7.5 45.4
09:45 1017 30.03 847 25.01 16.7 62 54 7.3 45.2
09:50 1017 30.03 847 25.01 17.1 62.8 49 6.3 43.3
09:55 1017 30.03 847 25.01 17.1 62.8 50 6.7 44.1
10:00 1017 30.03 847 25.01 17 62.6 51 6.9 44.4
10:05 1017 30.03 847 25.01 17.9 64.2 46 6.2 43.2
10:10 1018 30.06 847 25.01 17.9 64.3 49 7.3 45.1
10:15 1017 30.03 847 25.01 17.6 63.7 48 6.7 44.1
10:20 1017 30.03 847 25.01 18 64.3 50 7.4 45.4
10:25 1017 30.03 847 25.01 17.8 64 48 6.7 44
10:30 1017 30.03 847 25.01 18.4 65 48 7.2 44.9
10:35 1017 30.03 847 25.01 18.6 65.4 47 7.3 45.1
10:40 1017 30.03 846 24.98 18.4 65.2 46 6.6 43.9
10:45 1017 30.03 847 25.01 18.5 65.3 45 6.6 43.8
10:50 1017 30.03 847 25.01 19.1 66.3 43 6.5 43.7
10:55 1017 30.03 847 25.01 19.3 66.8 46 7.5 45.4
11:00 1017 30.03 847 25.01 18.7 65.7 47 7.2 44.9
11:05 1017 30.03 846 24.98 18.9 66 47 7.5 45.6
11:10 1017 30.03 846 24.98 18.7 65.7 42 5.9 42.6
11:15 1017 30.03 846 24.98 18.7 65.7 42 5.7 42.3
11:20 1017 30.03 846 24.98 18.8 65.8 45 6.9 44.3
11:25 1017 30.03 846 24.98 18.7 65.7 45 6.6 43.8
11:30 1017 30.03 846 24.98 18.5 65.2 46 6.6 43.9
11:35 1017 30.03 846 24.98 19.5 67 38 4.9 40.8
11:40 1017 30.03 846 24.98 19 66.1 41 5.4 41.7
11:45 1017 30.03 846 24.98 18.8 65.8 41 5.5 42
11:50 1017 30.03 846 24.98 19.2 66.6 39 5.2 41.4
11:55 1017 30.03 846 24.98 20.2 68.3 37 5.1 41.1
12:00 1017 30.03 846 24.98 20.2 68.3 38 5.5 41.9
12:05 1017 30.03 846 24.98 19 66.3 39 4.9 40.8
12:10 1017 30.03 846 24.98 19.5 67.2 38 5 41
12:15 1017 30.03 846 24.98 20.1 68.2 35 4.3 39.7
12:20 1017 30.03 846 24.98 20.7 69.2 34 4.2 39.6
12:25 1017 30.03 846 24.98 20.7 69.3 33 3.9 39
12:30 1017 30.03 846 24.98 20.8 69.5 35 4.8 40.7
12:35 1017 30.03 846 24.98 21.4 70.5 31 3.9 39.1
12:40 1017 30.03 846 24.98 21 69.7 32 3.9 39
12:45 1017 30.03 846 24.98 22.1 71.8 29 3.4 38.2
12:50 1017 30.03 846 24.98 21.9 71.4 31 4 39.2
12:55 1017 30.03 846 24.98 22.4 72.3 28 3.1 37.7
13:00 1017 30.03 846 24.98 22.4 72.4 28 3.4 38.1
13:05 1017 30.03 846 24.98 22.7 72.8 28 3.6 38.4
13:10 1016 30 846 24.98 22 71.7 30 3.9 39
13:15 1016 30 846 24.98 22.2 71.9 29 3.3 37.9
13:20 1016 30 846 24.98 21.4 70.6 31 3.7 38.6
13:25 1017 30.03 846 24.98 21.1 69.9 32 3.8 38.9
13:30 1017 30.03 846 24.98 20 68 35 4.2 39.6
13:35 1017 30.03 846 24.98 19.1 66.3 37 4.3 39.8
13:40 1016 30 846 24.98 18.9 66 39 4.9 40.8
13:45 1016 30 846 24.98 18.7 65.7 42 5.8 42.5
13:50 1016 30 846 24.98 18.3 64.9 44 6 42.9
13:55 1016 30 846 24.98 18.5 65.2 42 5.3 41.5
14:00 1016 30 846 24.98 18.1 64.5 42 5.2 41.4
14:05 1016 30 846 24.98 17.6 63.6 45 5.7 42.3
14:10 1016 30 846 24.98 17 62.7 48 6.1 43
14:15 1016 30 846 24.98 16.8 62.2 53 7.2 45
14:20 1016 30 846 24.98 16.8 62.2 51 6.6 43.9
14:25 1016 30 846 24.98 16.8 62.2 49 6.3 43.3
14:30 1016 30 845 24.95 17.3 63.1 53 7.6 45.8
14:35 1016 30 845 24.95 17.4 63.2 53 7.8 46.1
14:40 1016 30 845 24.95 17.6 63.8 48 6.7 44.1
14:45 1016 30 845 24.95 18.6 65.6 46 7 44.6
14:50 1016 30 845 24.95 19 66.2 44 6.7 44.1
14:55 1016 30 845 24.95 20.1 68.2 32 3.2 37.8
15:00 1016 30 845 24.95 20.4 68.8 34 4.1 39.4
15:05 1016 30 845 24.95 20.4 68.7 34 4 39.2
15:10 1016 30 845 24.95 20.5 68.9 32 3.4 38.1
15:15 1016 30 845 24.95 20.5 68.9 36 4.9 40.9
15:20 1016 30 845 24.95 20.9 69.5 32 3.7 38.7
15:25 1016 30 845 24.95 21.2 70.2 31 3.6 38.5
15:30 1016 30 845 24.95 20.7 69.2 32 3.4 38.1
15:35 1016 30 845 24.95 20.5 68.9 31 3 37.4
15:40 1016 30 845 24.95 20.7 69.2 31 3.1 37.5
15:45 1016 30 845 24.95 21.3 70.3 28 2 35.6
15:50 1016 30 845 24.95 21.2 70.1 29 2.4 36.4
15:55 1016 30 845 24.95 21.7 71 28 2.7 36.9
16:00 1016 30 845 24.95 21.7 71 31 4.2 39.5
16:05 1016 30 845 24.95 21.4 70.5 31 3.8 38.9
16:10 1016 30 845 24.95 21.3 70.3 32 3.9 39.1
16:15 1016 30 845 24.95 21.1 70 35 5.1 41.1
16:20 1016 30 845 24.95 20.2 68.4 41 6.7 44
16:25 1016 30 845 24.95 19.9 67.7 41 6.4 43.5
16:30 1016 30 845 24.95 20.2 68.3 41 6.6 43.8
16:35 1016 30 845 24.95 20.3 68.5 39 6.1 42.9
16:40 1016 30 845 24.95 20.5 68.8 39 6.1 42.9
16:45 1016 30 845 24.95 20.8 69.4 36 5.5 41.8
16:50 1016 30 845 24.95 21 69.8 37 5.8 42.4
16:55 1016 30 845 24.95 21.4 70.4 34 5.2 41.4
17:00 1016 30 845 24.95 21.8 71.2 32 4.5 40.1
17:05 1016 30 845 24.95 22.5 72.5 31 4.5 40.1
17:10 1016 30 845 24.95 21.6 70.9 33 4.8 40.6
17:15 1016 30 845 24.95 20.8 69.4 35 5 41.1
17:20 1016 30 845 24.95 19.7 67.5 41 6.4 43.5
17:25 1016 30 845 24.95 18.7 65.7 44 6.3 43.3
17:30 1016 30 845 24.95 18.5 65.4 43 6 42.8
17:35 1016 30 845 24.95 17.9 64.2 46 6.3 43.4
17:40 1016 30 845 24.95 17.5 63.4 48 6.4 43.5
17:45 1016 30 845 24.95 17.2 62.9 48 6.2 43.2
17:50 1016 30 846 24.98 17.1 62.8 50 6.6 43.9
17:55 1016 30 846 24.98 17.2 62.9 47 5.8 42.4
18:00 1016 30 846 24.98 17 62.6 47 5.6 42.1
18:05 1016 30 846 24.98 16.7 62.1 49 6 42.8
18:10 1016 30 846 24.98 16.6 61.9 49 5.9 42.7
18:15 1017 30.03 846 24.98 16.7 62 49 6 42.7
18:20 1017 30.03 846 24.98 16.6 61.8 50 6.3 43.3
18:25 1017 30.03 846 24.98 16.1 60.9 51 6.1 42.9
18:30 1017 30.03 846 24.98 16 60.8 52 6.2 43.2
18:35 1017 30.03 846 24.98 16 60.7 52 6.3 43.4
18:40 1017 30.03 846 24.98 15.7 60.3 53 6.3 43.3
18:45 1017 30.03 846 24.98 15.4 59.8 54 6.3 43.4
18:50 1017 30.03 846 24.98 15.2 59.4 55 6.2 43.2
18:55 1017 30.03 846 24.98 15.2 59.4 55 6.3 43.3
19:00 1017 30.03 846 24.98 15.1 59.3 56 6.5 43.7
19:05 1017 30.03 846 24.98 14.9 58.9 58 6.9 44.4
19:10 1017 30.03 846 24.98 14.5 58.1 63 7.5 45.6
19:15 1017 30.03 847 25.01 14.4 58 67 8.3 47
19:20 1018 30.06 847 25.01 14.4 57.9 69 8.8 47.9
19:25 1017 30.03 847 25.01 14.3 57.8 71 9.2 48.6
19:30 1017 30.03 847 25.01 14.1 57.4 72 9.2 48.6
19:35 1017 30.03 847 25.01 13.9 57 74 9.4 48.9
19:40 1018 30.06 847 25.01 13.9 57 73 9.2 48.6
19:45 1018 30.06 847 25.01 13.9 57 73 9.2 48.5
19:50 1018 30.06 847 25.01 13.9 56.9 74 9.3 48.7
19:55 1018 30.06 847 25.01 13.8 56.9 73 9.1 48.4
20:00 1018 30.06 847 25.01 13.8 56.8 74 9.2 48.6
20:05 1018 30.06 847 25.01 13.8 56.8 72 9 48.1
20:10 1018 30.06 847 25.01 13.7 56.7 72 8.9 48
20:15 1018 30.06 847 25.01 13.7 56.6 74 9.1 48.4
20:20 1018 30.06 847 25.01 13.5 56.4 73 8.8 47.9
20:25 1018 30.06 847 25.01 13.3 55.9 73 8.5 47.4
20:30 1018 30.06 847 25.01 13.2 55.7 73 8.4 47.1
20:35 1018 30.06 847 25.01 13.2 55.8 73 8.4 47.1
20:40 1018 30.06 847 25.01 13.3 55.9 74 8.7 47.6
20:45 1018 30.06 847 25.01 13.3 55.9 72 8.4 47.1
20:50 1018 30.06 847 25.01 13.2 55.7 73 8.4 47.1
20:55 1018 30.06 847 25.01 13.2 55.8 73 8.5 47.4
21:00 1018 30.06 847 25.01 13.2 55.7 72 8.3 46.9
21:05 1018 30.06 847 25.01 13.1 55.6 73 8.4 47.1
21:10 1018 30.06 847 25.01 13.1 55.5 74 8.5 47.4
21:15 1018 30.06 847 25.01 13 55.5 74 8.5 47.4
21:20 1018 30.06 847 25.01 12.9 55.1 75 8.6 47.5
21:25 1018 30.06 847 25.01 12.6 54.7 77 8.6 47.5
21:30 1018 30.06 847 25.01 12.3 54.1 78 8.5 47.4
21:35 1018 30.06 847 25.01 12.1 53.7 79 8.5 47.2
21:40 1018 30.06 847 25.01 12.2 53.9 76 8.1 46.6
21:45 1018 30.06 847 25.01 12.3 54.2 77 8.4 47.1
21:50 1018 30.06 847 25.01 12.1 53.7 78 8.4 47.1
21:55 1018 30.06 847 25.01 12.2 54 73 7.6 45.6
22:00 1018 30.06 847 25.01 12.5 54.5 75 8.3 47
22:05 1018 30.06 847 25.01 12.2 53.9 77 8.3 46.9
22:10 1018 30.06 848 25.04 11.9 53.4 77 8 46.4
22:15 1018 30.06 848 25.04 11.9 53.5 76 7.9 46.2
22:20 1018 30.06 848 25.04 11.9 53.4 77 8 46.3
22:25 1018 30.06 848 25.04 11.9 53.3 77 8 46.3
22:30 1018 30.06 848 25.04 11.8 53.3 76 7.9 46.1
22:35 1018 30.06 848 25.04 11.9 53.4 75 7.6 45.8
22:40 1018 30.06 848 25.04 12.1 53.7 75 7.8 46
22:45 1018 30.06 848 25.04 12.1 53.7 76 7.9 46.2
22:50 1018 30.06 848 25.04 12 53.6 77 8 46.5
22:55 1018 30.06 848 25.04 11.8 53.2 78 8 46.5
23:00 1018 30.06 848 25.04 11.7 53 78 8 46.3
23:05 1018 30.06 848 25.04 11.7 53 78 8 46.4
23:10 1018 30.06 848 25.04 11.4 52.4 81 8.2 46.7
23:15 1018 30.06 848 25.04 11 51.8 81 7.8 46.1
23:20 1018 30.06 848 25.04 10.8 51.5 81 7.7 45.9
23:25 1018 30.06 847 25.01 10.9 51.6 80 7.6 45.7
23:30 1018 30.06 847 25.01 11.2 52.1 78 7.5 45.5
23:35 1018 30.06 847 25.01 11.2 52.2 78 7.6 45.7
23:40 1018 30.06 847 25.01 10.9 51.6 80 7.5 45.5
23:45 1018 30.06 847 25.01 10.5 50.9 82 7.5 45.5
23:50 1018 30.06 847 25.01 10.3 50.5 81 7.2 45
23:55 1018 30.06 847 25.01 10.2 50.4 81 7.1 44.8
24:00 1018 30.06 847 25.01 10.2 50.3 81 7 44.6